createdAt,value
2023-08-21T00:00:37.070Z,55.27
2023-08-21T00:03:39.338Z,54.37
2023-08-21T00:06:41.579Z,54.37
2023-08-21T00:09:43.840Z,54.44
2023-08-21T00:12:46.084Z,54.07
2023-08-21T00:15:48.547Z,54.33
2023-08-21T00:18:50.777Z,53.84
2023-08-21T00:21:53.012Z,53.73
2023-08-21T00:24:55.192Z,53.58
2023-08-21T00:27:57.389Z,53.26
2023-08-21T00:31:06.615Z,53.50
2023-08-21T00:34:08.888Z,53.35
2023-08-21T00:37:12.145Z,53.03
2023-08-21T00:40:14.703Z,52.89
2023-08-21T00:43:17.000Z,52.76
2023-08-21T00:46:19.248Z,52.57
2023-08-21T00:49:22.039Z,52.93
2023-08-21T00:52:24.442Z,52.90
2023-08-21T00:55:26.764Z,52.49
2023-08-21T00:58:29.018Z,52.85
2023-08-21T01:01:31.532Z,53.18
2023-08-21T01:04:33.824Z,53.31
2023-08-21T01:07:41.913Z,52.73
2023-08-21T01:11:10.289Z,53.08
2023-08-21T01:14:24.510Z,52.55
2023-08-21T01:17:26.914Z,52.77
2023-08-21T01:20:29.518Z,52.78
2023-08-21T01:23:36.054Z,52.29
2023-08-21T01:26:38.228Z,52.16
2023-08-21T01:29:40.743Z,52.14
2023-08-21T01:33:07.024Z,52.12
2023-08-21T01:36:12.191Z,51.93
2023-08-21T01:39:14.624Z,51.92
2023-08-21T01:42:16.819Z,52.52
2023-08-21T01:45:19.126Z,52.52
2023-08-21T01:48:21.370Z,52.60
2023-08-21T01:51:23.708Z,52.84
2023-08-21T01:54:25.988Z,52.42
2023-08-21T01:57:28.207Z,52.40
2023-08-21T02:00:30.439Z,52.71
2023-08-21T02:03:32.746Z,52.84
2023-08-21T02:06:35.014Z,53.07
2023-08-21T02:09:37.208Z,53.25
2023-08-21T02:12:41.458Z,53.79
2023-08-21T02:15:44.880Z,53.83
2023-08-21T02:18:47.521Z,53.73
2023-08-21T02:21:49.725Z,53.95
2023-08-21T02:24:51.932Z,53.67
2023-08-21T02:27:57.556Z,53.85
2023-08-21T02:31:00.687Z,53.86
2023-08-21T02:34:02.924Z,54.14
2023-08-21T02:37:06.210Z,54.10
2023-08-21T02:40:09.766Z,54.40
2023-08-21T02:43:12.039Z,54.17
2023-08-21T02:46:14.405Z,54.55
2023-08-21T02:49:16.614Z,54.39
2023-08-21T02:52:19.134Z,55.02
2023-08-21T02:55:21.974Z,55.14
2023-08-21T02:58:24.297Z,55.21
2023-08-21T03:01:26.531Z,55.67
2023-08-21T03:04:28.757Z,55.63
2023-08-21T03:07:30.978Z,55.40
2023-08-21T03:10:34.961Z,55.40
2023-08-21T03:13:37.186Z,55.12
2023-08-21T03:16:39.443Z,56.01
2023-08-21T03:19:41.813Z,55.56
2023-08-21T03:22:44.339Z,55.38
2023-08-21T03:25:46.656Z,55.47
2023-08-21T03:28:48.945Z,55.43
2023-08-21T03:31:51.490Z,55.74
2023-08-21T03:34:53.732Z,55.83
2023-08-21T03:37:56.343Z,56.06
2023-08-21T03:41:00.038Z,56.30
2023-08-21T03:44:02.482Z,56.16
2023-08-21T03:47:04.800Z,56.35
2023-08-21T03:50:10.670Z,56.74
2023-08-21T03:53:13.162Z,56.24
2023-08-21T03:56:15.412Z,56.31
2023-08-21T03:59:17.653Z,56.08
2023-08-21T04:02:19.838Z,55.91
2023-08-21T04:05:22.071Z,56.06
2023-08-21T04:08:24.321Z,56.34
2023-08-21T04:11:26.923Z,55.66
2023-08-21T04:14:29.116Z,54.90
2023-08-21T04:17:31.362Z,54.57
2023-08-21T04:20:33.684Z,53.61
2023-08-21T04:23:35.895Z,53.34
2023-08-21T04:26:38.157Z,53.42
2023-08-21T04:29:40.745Z,53.00
2023-08-21T04:32:43.437Z,52.07
2023-08-21T04:35:45.681Z,52.27
2023-08-21T04:38:48.104Z,52.33
2023-08-21T04:41:50.805Z,52.61
2023-08-21T04:44:54.576Z,52.22
2023-08-21T04:47:58.560Z,52.38
2023-08-21T04:51:01.510Z,52.56
2023-08-21T04:54:03.954Z,52.26
2023-08-21T04:57:07.029Z,52.19
2023-08-21T05:00:10.892Z,52.01
2023-08-21T05:03:16.510Z,52.16
2023-08-21T05:06:21.043Z,52.31
2023-08-21T05:09:23.412Z,52.14
2023-08-21T05:12:27.099Z,52.38
2023-08-21T05:15:29.310Z,52.25
2023-08-21T05:18:31.869Z,52.03
2023-08-21T05:21:34.151Z,52.04
2023-08-21T05:24:36.497Z,52.15
2023-08-21T05:27:41.208Z,52.58
2023-08-21T05:30:43.377Z,52.88
2023-08-21T05:33:46.337Z,52.73
2023-08-21T05:36:49.979Z,52.64
2023-08-21T05:39:52.452Z,52.84
2023-08-21T05:42:54.697Z,52.75
2023-08-21T05:45:57.200Z,52.80
2023-08-21T05:48:59.914Z,52.88
2023-08-21T05:52:02.195Z,52.52
2023-08-21T05:55:05.866Z,52.70
2023-08-21T05:58:08.694Z,52.85
2023-08-21T06:01:10.988Z,53.01
2023-08-21T06:04:13.472Z,52.99
2023-08-21T06:07:18.508Z,53.14
2023-08-21T06:10:20.840Z,52.88
2023-08-21T06:13:23.200Z,52.63
2023-08-21T06:16:29.292Z,52.66
2023-08-21T06:19:31.560Z,52.64
2023-08-21T06:22:33.900Z,52.33
2023-08-21T06:25:36.226Z,52.16
2023-08-21T06:28:38.715Z,51.79
2023-08-21T06:31:40.994Z,52.63
2023-08-21T06:34:43.215Z,52.09
2023-08-21T06:37:45.441Z,51.76
2023-08-21T06:40:47.717Z,51.54
2023-08-21T06:43:49.954Z,51.32
2023-08-21T06:46:54.362Z,51.71
2023-08-21T06:49:56.660Z,51.58
2023-08-21T06:52:58.848Z,51.51
2023-08-21T06:56:01.327Z,51.33
2023-08-21T06:59:03.694Z,50.75
2023-08-21T07:02:06.701Z,51.01
2023-08-21T07:05:11.958Z,50.55
2023-08-21T07:08:14.932Z,50.41
2023-08-21T07:11:18.382Z,50.13
2023-08-21T07:14:20.824Z,49.83
2023-08-21T07:17:23.040Z,49.27
2023-08-21T07:20:25.300Z,49.70
2023-08-21T07:23:27.574Z,49.27
2023-08-21T07:26:30.010Z,48.94
2023-08-21T07:29:32.226Z,48.69
2023-08-21T07:32:34.500Z,48.95
2023-08-21T07:35:37.191Z,48.72
2023-08-21T07:38:46.258Z,48.78
2023-08-21T07:51:27.114Z,47.90
2023-08-21T07:54:29.408Z,47.76
2023-08-21T07:57:31.759Z,47.92
2023-08-21T08:00:34.063Z,47.90
2023-08-21T08:03:36.586Z,47.96
2023-08-21T08:06:39.357Z,48.11
2023-08-21T08:09:44.455Z,47.94
2023-08-21T08:12:46.688Z,47.53
2023-08-21T08:15:49.038Z,47.35
2023-08-21T08:18:51.387Z,47.18
2023-08-21T08:21:53.735Z,47.09
2023-08-21T08:24:55.976Z,47.01
2023-08-21T08:27:58.246Z,47.82
2023-08-21T08:31:01.522Z,47.35
2023-08-21T08:34:03.814Z,46.96
2023-08-21T08:37:06.010Z,46.50
2023-08-21T08:40:08.984Z,46.59
2023-08-21T08:43:13.122Z,46.57
2023-08-21T08:46:16.058Z,46.37
2023-08-21T08:49:18.696Z,46.22
2023-08-21T08:52:21.157Z,46.03
2023-08-21T08:55:23.668Z,46.24
2023-08-21T08:58:25.905Z,46.91
2023-08-21T09:01:28.390Z,46.32
2023-08-21T09:04:30.801Z,45.71
2023-08-21T09:07:33.165Z,45.38
2023-08-21T09:10:37.543Z,44.01
2023-08-21T09:13:40.152Z,44.26
2023-08-21T09:17:02.087Z,43.63
2023-08-21T09:20:11.410Z,43.41
2023-08-21T09:23:17.905Z,43.92
2023-08-21T09:26:25.929Z,43.84
2023-08-21T09:29:28.413Z,43.43
2023-08-21T09:32:30.669Z,44.12
2023-08-21T09:35:34.185Z,44.07
2023-08-21T09:38:36.735Z,42.96
2023-08-21T09:41:39.957Z,42.81
2023-08-21T09:44:44.296Z,42.47
2023-08-21T09:47:46.833Z,42.41
2023-08-21T09:50:49.134Z,42.82
2023-08-21T09:53:51.711Z,43.13
2023-08-21T09:56:54.436Z,42.96
2023-08-21T09:59:57.270Z,42.74
2023-08-21T10:03:08.639Z,42.59
2023-08-21T10:06:11.769Z,42.45
2023-08-21T10:09:14.181Z,42.31
2023-08-21T10:12:17.651Z,42.93
2023-08-21T10:15:20.366Z,42.91
2023-08-21T10:18:31.271Z,42.58
2023-08-21T10:21:37.461Z,42.46
2023-08-21T10:24:39.789Z,42.68
2023-08-21T10:27:43.748Z,42.26
2023-08-21T10:30:48.697Z,42.33
2023-08-21T10:33:50.962Z,42.27
2023-08-21T10:37:06.955Z,42.63
2023-08-21T10:40:13.345Z,42.73
2023-08-21T10:43:47.968Z,42.58
2023-08-21T10:46:53.988Z,42.69
2023-08-21T10:50:01.441Z,42.60
2023-08-21T10:53:03.849Z,42.47
2023-08-21T10:56:11.294Z,42.56
2023-08-21T10:59:51.659Z,42.41
2023-08-21T11:02:56.790Z,41.79
2023-08-21T11:06:08.218Z,42.06
2023-08-21T11:09:14.248Z,41.89
2023-08-21T11:12:19.225Z,41.01
2023-08-21T11:15:23.748Z,41.39
2023-08-21T11:18:38.972Z,41.48
2023-08-21T11:21:41.225Z,41.15
2023-08-21T11:24:44.419Z,41.18
2023-08-21T11:27:46.840Z,40.58
2023-08-21T11:30:49.779Z,41.09
2023-08-21T11:33:52.441Z,40.76
2023-08-21T11:36:54.766Z,40.52
2023-08-21T11:39:59.208Z,40.60
2023-08-21T11:43:02.590Z,40.04
2023-08-21T11:46:06.309Z,40.25
2023-08-21T11:49:08.570Z,40.38
2023-08-21T11:52:12.458Z,40.32
2023-08-21T11:55:14.635Z,39.69
2023-08-21T11:58:19.314Z,39.34
2023-08-21T12:01:22.235Z,39.31
2023-08-21T12:04:25.691Z,39.36
2023-08-21T12:07:27.947Z,39.24
2023-08-21T12:10:30.683Z,38.73
2023-08-21T12:13:35.512Z,38.35
2023-08-21T12:16:38.664Z,38.86
2023-08-21T12:19:41.053Z,38.66
2023-08-21T12:22:45.894Z,38.78
2023-08-21T12:25:48.110Z,38.61
2023-08-21T12:28:51.118Z,38.45
2023-08-21T12:31:53.490Z,37.90
2023-08-21T12:34:55.736Z,38.54
2023-08-21T12:37:59.422Z,38.71
2023-08-21T12:41:03.841Z,38.52
2023-08-21T12:44:09.701Z,38.33
2023-08-21T12:47:11.916Z,38.40
2023-08-21T12:50:14.609Z,37.75
2023-08-21T12:53:16.988Z,38.27
2023-08-21T12:56:19.417Z,38.17
2023-08-21T12:59:21.669Z,38.42
2023-08-21T13:02:24.438Z,37.53
2023-08-21T13:05:27.324Z,37.33
2023-08-21T13:08:29.497Z,36.68
2023-08-21T13:11:31.858Z,36.66
2023-08-21T13:14:34.050Z,37.39
2023-08-21T13:17:36.829Z,36.73
2023-08-21T13:20:39.176Z,36.41
2023-08-21T13:23:41.383Z,36.21
2023-08-21T13:26:43.659Z,36.18
2023-08-21T13:29:47.412Z,36.33
2023-08-21T13:32:49.772Z,35.43
2023-08-21T13:35:52.051Z,35.99
2023-08-21T13:38:56.474Z,34.92
2023-08-21T13:41:58.717Z,34.51
2023-08-21T13:45:00.942Z,35.13
2023-08-21T13:48:05.178Z,34.28
2023-08-21T13:51:07.506Z,34.67
2023-08-21T13:54:09.754Z,33.85
2023-08-21T13:57:12.042Z,33.96
2023-08-21T14:00:14.753Z,34.06
2023-08-21T14:03:17.081Z,34.11
2023-08-21T14:06:19.436Z,33.94
2023-08-21T14:09:21.690Z,34.27
2023-08-21T14:12:23.936Z,33.22
2023-08-21T14:15:26.283Z,33.91
2023-08-21T14:18:28.560Z,33.67
2023-08-21T14:21:31.016Z,33.09
2023-08-21T14:24:33.671Z,32.73
2023-08-21T14:27:36.266Z,32.03
2023-08-21T14:30:38.938Z,32.15
2023-08-21T14:33:41.176Z,31.29
2023-08-21T14:36:43.681Z,32.34
2023-08-21T14:39:45.868Z,30.96
2023-08-21T14:42:48.066Z,31.54
2023-08-21T14:45:50.373Z,32.07
2023-08-21T14:48:55.685Z,31.58
2023-08-21T14:51:57.896Z,30.56
2023-08-21T14:55:00.211Z,30.39
2023-08-21T14:58:08.204Z,31.28
2023-08-21T15:01:11.723Z,32.03
2023-08-21T15:04:14.010Z,31.05
2023-08-21T15:07:16.248Z,30.97
2023-08-21T15:10:18.484Z,31.54
2023-08-21T15:13:20.799Z,30.42
2023-08-21T15:16:23.122Z,30.89
2023-08-21T15:19:25.451Z,30.15
2023-08-21T15:22:27.736Z,30.80
2023-08-21T15:25:30.007Z,30.21
2023-08-21T15:28:32.208Z,30.32
2023-08-21T15:31:34.529Z,30.84
2023-08-21T15:34:36.765Z,31.01
2023-08-21T15:37:38.983Z,30.62
2023-08-21T15:40:44.973Z,30.84
2023-08-21T15:43:47.487Z,31.40
2023-08-21T15:46:50.054Z,31.33
2023-08-21T15:49:52.326Z,31.17
2023-08-21T15:52:54.579Z,31.46
2023-08-21T15:55:56.792Z,31.22
2023-08-21T15:58:59.028Z,32.44
2023-08-21T16:02:01.246Z,31.23
2023-08-21T16:05:05.282Z,31.98
2023-08-21T16:08:07.669Z,32.75
2023-08-21T16:11:10.028Z,31.56
2023-08-21T16:14:14.200Z,32.16
2023-08-21T16:17:17.866Z,32.40
2023-08-21T16:20:20.293Z,32.58
2023-08-21T16:23:22.552Z,32.51
2023-08-21T16:26:25.045Z,32.17
2023-08-21T16:29:27.340Z,31.94
2023-08-21T16:32:29.618Z,32.25
2023-08-21T16:35:31.819Z,31.88
2023-08-21T16:38:34.382Z,32.20
2023-08-21T16:41:36.596Z,32.49
2023-08-21T16:44:38.818Z,32.17
2023-08-21T16:47:41.407Z,32.87
2023-08-21T16:50:43.691Z,33.07
2023-08-21T16:53:45.965Z,32.99
2023-08-21T16:56:48.187Z,33.31
2023-08-21T16:59:50.620Z,34.13
2023-08-21T17:02:53.118Z,33.86
2023-08-21T17:05:55.408Z,35.32
2023-08-21T17:08:57.694Z,34.54
2023-08-21T17:11:59.893Z,34.33
2023-08-21T17:15:04.300Z,35.12
2023-08-21T17:18:06.934Z,35.82
2023-08-21T17:21:09.147Z,35.65
2023-08-21T17:24:11.341Z,36.69
2023-08-21T17:27:13.533Z,36.63
2023-08-21T17:30:15.919Z,37.86
2023-08-21T17:33:18.145Z,37.73
2023-08-21T17:36:20.372Z,38.35
2023-08-21T17:39:22.622Z,38.08
2023-08-21T17:42:24.869Z,38.70
2023-08-21T17:45:27.019Z,38.85
2023-08-21T17:48:29.426Z,39.54
2023-08-21T17:51:31.636Z,40.26
2023-08-21T17:54:33.856Z,40.97
2023-08-21T17:57:37.880Z,40.33
2023-08-21T18:00:40.898Z,41.12
2023-08-21T18:03:43.411Z,41.35
2023-08-21T18:06:45.642Z,41.68
2023-08-21T18:09:47.824Z,41.93
2023-08-21T18:12:50.045Z,42.68
2023-08-21T18:15:52.396Z,42.92
2023-08-21T18:18:54.593Z,43.19
2023-08-21T18:21:56.817Z,43.41
2023-08-21T18:24:59.030Z,44.05
2023-08-21T18:28:01.271Z,43.82
2023-08-21T18:31:04.050Z,44.22
2023-08-21T18:34:06.342Z,44.49
2023-08-21T18:37:09.679Z,44.77
2023-08-21T18:40:12.414Z,44.93
2023-08-21T18:43:14.691Z,45.58
2023-08-21T18:46:17.856Z,46.02
2023-08-21T18:49:20.083Z,45.96
2023-08-21T18:52:22.296Z,46.08
2023-08-21T18:55:24.479Z,46.90
2023-08-21T18:58:26.676Z,46.78
2023-08-21T19:01:29.023Z,47.08
2023-08-21T19:04:31.873Z,47.09
2023-08-21T19:07:34.000Z,47.31
2023-08-21T19:10:36.631Z,47.72
2023-08-21T19:13:39.015Z,47.67
2023-08-21T19:16:41.487Z,47.93
2023-08-21T19:19:43.839Z,47.42
2023-08-21T19:22:46.047Z,48.08
2023-08-21T19:25:48.231Z,47.75
2023-08-21T19:28:50.526Z,48.22
2023-08-21T19:31:52.757Z,48.64
2023-08-21T19:34:56.761Z,48.63
2023-08-21T19:37:58.997Z,48.82
2023-08-21T19:41:01.212Z,48.81
2023-08-21T19:44:03.622Z,48.64
2023-08-21T19:47:06.028Z,48.76
2023-08-21T19:50:08.633Z,49.17
2023-08-21T19:53:10.856Z,49.10
2023-08-21T19:56:13.089Z,48.96
2023-08-21T19:59:15.324Z,49.03
2023-08-21T20:02:17.596Z,49.21
2023-08-21T20:05:19.861Z,49.79
2023-08-21T20:08:24.620Z,49.91
2023-08-21T20:11:28.484Z,49.50
2023-08-21T20:14:30.754Z,49.87
2023-08-21T20:17:33.657Z,49.92
2023-08-21T20:20:35.905Z,50.09
2023-08-21T20:23:38.159Z,50.50
2023-08-21T20:26:40.351Z,50.32
2023-08-21T20:29:42.588Z,50.55
2023-08-21T20:32:45.152Z,50.30
2023-08-21T20:35:47.450Z,50.25
2023-08-21T20:38:50.326Z,50.50
2023-08-21T20:41:52.538Z,50.67
2023-08-21T20:44:54.848Z,50.78
2023-08-21T20:47:57.145Z,50.56
2023-08-21T20:50:59.548Z,50.67
2023-08-21T20:54:01.822Z,51.24
2023-08-21T20:57:04.455Z,51.22
2023-08-21T21:00:10.014Z,51.66
2023-08-21T21:03:12.286Z,51.71
2023-08-21T21:06:14.556Z,51.43
2023-08-21T21:09:16.740Z,52.10
2023-08-21T21:12:19.111Z,52.24
2023-08-21T21:15:21.325Z,52.54
2023-08-21T21:18:23.512Z,52.50
2023-08-21T21:21:25.903Z,52.30
2023-08-21T21:24:29.665Z,52.69
2023-08-21T21:27:32.190Z,52.64
2023-08-21T21:30:34.461Z,52.75
2023-08-21T21:33:36.687Z,53.00
2023-08-21T21:36:43.476Z,52.66
2023-08-21T21:39:45.706Z,52.59
2023-08-21T21:42:47.898Z,52.72
2023-08-21T21:45:59.577Z,52.93
2023-08-21T21:49:03.697Z,52.89
2023-08-21T21:52:05.943Z,52.77
2023-08-21T21:55:09.329Z,53.59
2023-08-21T21:58:11.569Z,53.23
2023-08-21T22:01:13.934Z,53.39
2023-08-21T22:04:16.186Z,52.97
2023-08-21T22:07:18.461Z,53.04
2023-08-21T22:10:20.677Z,53.13
2023-08-21T22:13:23.032Z,53.02
2023-08-21T22:16:25.310Z,53.10
2023-08-21T22:19:27.543Z,53.04
2023-08-21T22:22:29.763Z,53.14
2023-08-21T22:25:32.183Z,53.53
2023-08-21T22:28:34.342Z,53.34
2023-08-21T22:31:42.534Z,53.58
2023-08-21T22:34:46.570Z,53.96
2023-08-21T22:37:48.822Z,53.81
2023-08-21T22:40:51.032Z,53.68
2023-08-21T22:43:53.251Z,53.70
2023-08-21T22:46:55.470Z,54.06
2023-08-21T22:50:00.187Z,54.04
2023-08-21T22:53:05.240Z,54.19
2023-08-21T22:56:07.836Z,54.16
2023-08-21T22:59:11.042Z,53.97
2023-08-21T23:02:13.325Z,53.82
2023-08-21T23:05:15.695Z,53.70
2023-08-21T23:08:17.918Z,53.76
2023-08-21T23:11:20.349Z,53.78
2023-08-21T23:14:22.604Z,54.12
2023-08-21T23:17:24.941Z,54.64
2023-08-21T23:20:27.206Z,54.36
2023-08-21T23:23:29.858Z,54.54
2023-08-21T23:26:32.027Z,53.94
2023-08-21T23:29:34.642Z,54.31
2023-08-21T23:32:36.832Z,54.11
2023-08-21T23:35:39.783Z,53.80
2023-08-21T23:38:42.674Z,54.19
2023-08-21T23:41:45.611Z,54.36
2023-08-21T23:44:47.806Z,54.38
2023-08-21T23:47:50.245Z,53.89
2023-08-21T23:50:52.544Z,54.33
2023-08-21T23:53:54.802Z,54.36
2023-08-21T23:56:56.972Z,54.38
2023-08-21T23:59:59.284Z,54.73
